createdAt,value
2023-05-05T00:01:28.997Z,9.07
2023-05-05T00:03:55.841Z,10.10
2023-05-05T00:06:23.353Z,10.40
2023-05-05T00:08:50.562Z,9.23
2023-05-05T00:11:19.139Z,9.90
2023-05-05T00:13:45.890Z,11.15
2023-05-05T00:16:12.630Z,9.05
2023-05-05T00:18:39.354Z,9.20
2023-05-05T00:21:06.728Z,8.40
2023-05-05T00:23:35.776Z,10.95
2023-05-05T00:26:02.713Z,8.27
2023-05-05T00:28:30.677Z,11.15
2023-05-05T00:30:57.754Z,10.40
2023-05-05T00:33:24.899Z,10.30
2023-05-05T00:35:51.738Z,9.98
2023-05-05T00:38:18.458Z,9.60
2023-05-05T00:40:45.534Z,9.43
2023-05-05T00:43:13.022Z,10.05
2023-05-05T00:45:42.891Z,11.27
2023-05-05T00:48:10.149Z,10.30
2023-05-05T00:50:38.034Z,9.80
2023-05-05T00:53:06.997Z,9.93
2023-05-05T00:55:36.218Z,11.25
2023-05-05T00:58:11.725Z,10.48
2023-05-05T01:00:38.819Z,9.65
2023-05-05T01:03:06.025Z,10.00
2023-05-05T01:05:47.019Z,10.23
2023-05-05T01:08:25.781Z,10.43
2023-05-05T01:11:03.527Z,9.48
2023-05-05T01:13:50.419Z,10.65
2023-05-05T01:16:30.784Z,9.98
2023-05-05T01:19:19.853Z,10.27
2023-05-05T01:22:00.752Z,9.63
2023-05-05T01:25:00.147Z,9.25
2023-05-05T01:27:47.017Z,9.50
2023-05-05T01:30:51.275Z,10.32
2023-05-05T01:33:25.063Z,10.70
2023-05-05T01:35:56.531Z,10.35
2023-05-05T01:38:26.933Z,9.40
2023-05-05T01:41:18.094Z,9.57
2023-05-05T01:43:47.863Z,8.75
2023-05-05T01:46:16.371Z,9.60
2023-05-05T01:48:44.623Z,9.98
2023-05-05T01:51:13.415Z,9.18
2023-05-05T01:53:41.923Z,9.90
2023-05-05T01:56:10.352Z,8.55
2023-05-05T01:58:38.572Z,8.77
2023-05-05T02:01:06.463Z,9.63
2023-05-05T02:03:36.384Z,9.40
2023-05-05T02:06:05.082Z,8.15
2023-05-05T02:08:33.067Z,9.95
2023-05-05T02:11:09.177Z,9.73
2023-05-05T02:13:37.583Z,9.02
2023-05-05T02:16:06.153Z,9.15
2023-05-05T02:18:35.902Z,11.57
2023-05-05T02:21:03.730Z,8.57
2023-05-05T02:23:30.993Z,9.50
2023-05-05T02:26:04.933Z,9.88
2023-05-05T02:28:48.927Z,9.77
2023-05-05T02:31:17.817Z,9.02
2023-05-05T02:33:47.313Z,9.38
2023-05-05T02:36:21.287Z,9.02
2023-05-05T02:38:53.288Z,10.20
2023-05-05T02:41:22.127Z,8.90
2023-05-05T02:43:51.078Z,11.20
2023-05-05T02:46:18.130Z,9.80
2023-05-05T02:48:46.099Z,9.43
2023-05-05T02:51:13.562Z,9.40
2023-05-05T02:53:40.378Z,9.40
2023-05-05T02:56:41.342Z,10.90
2023-05-05T02:59:36.945Z,10.90
2023-05-05T03:02:17.566Z,10.98
2023-05-05T03:04:52.954Z,10.32
2023-05-05T03:07:34.732Z,11.43
2023-05-05T03:10:08.540Z,11.32
2023-05-05T03:12:46.397Z,11.15
2023-05-05T03:15:14.228Z,9.50
2023-05-05T03:17:44.218Z,10.23
2023-05-05T03:20:13.953Z,10.48
2023-05-05T03:22:40.718Z,10.25
2023-05-05T03:25:08.107Z,10.75
2023-05-05T03:27:36.367Z,11.07
2023-05-05T03:30:03.355Z,10.80
2023-05-05T03:32:30.983Z,11.35
2023-05-05T03:34:57.728Z,10.18
2023-05-05T03:37:24.434Z,12.27
2023-05-05T03:39:51.124Z,11.27
2023-05-05T03:42:18.231Z,11.75
2023-05-05T03:44:46.502Z,12.05
2023-05-05T03:47:13.253Z,10.43
2023-05-05T03:49:40.340Z,10.40
2023-05-05T03:52:07.731Z,12.38
2023-05-05T03:54:34.436Z,11.20
2023-05-05T03:57:01.552Z,11.43
2023-05-05T03:59:28.229Z,11.48
2023-05-05T04:01:55.406Z,11.23
2023-05-05T04:04:22.192Z,10.75
2023-05-05T04:06:49.397Z,11.80
2023-05-05T04:09:16.879Z,10.23
2023-05-05T04:11:44.035Z,10.32
2023-05-05T04:14:10.826Z,10.57
2023-05-05T04:16:38.183Z,11.35
2023-05-05T04:19:05.322Z,11.48
2023-05-05T04:21:32.021Z,11.90
2023-05-05T04:23:58.838Z,10.65
2023-05-05T04:26:25.987Z,11.68
2023-05-05T04:28:53.496Z,10.68
2023-05-05T04:31:22.833Z,10.32
2023-05-05T04:33:50.303Z,10.27
2023-05-05T04:36:20.423Z,10.20
2023-05-05T04:38:47.232Z,9.40
2023-05-05T04:41:14.386Z,11.05
2023-05-05T04:46:21.965Z,10.75
2023-05-05T04:48:50.115Z,10.10
2023-05-05T04:51:17.062Z,13.43
2023-05-05T04:53:43.764Z,11.00
2023-05-05T04:56:12.130Z,11.23
2023-05-05T04:58:38.828Z,10.30
2023-05-05T05:01:05.520Z,10.77
2023-05-05T05:03:33.351Z,11.30
2023-05-05T05:06:02.827Z,12.52
2023-05-05T05:08:29.590Z,13.35
2023-05-05T05:10:56.317Z,11.18
2023-05-05T05:13:23.185Z,12.70
2023-05-05T05:15:51.245Z,10.85
2023-05-05T05:18:17.965Z,11.57
2023-05-05T05:20:45.200Z,11.65
2023-05-05T05:23:11.928Z,10.95
2023-05-05T05:25:38.613Z,11.95
2023-05-05T05:28:09.593Z,11.65
2023-05-05T05:30:37.596Z,11.38
2023-05-05T05:33:04.580Z,12.18
2023-05-05T05:35:31.948Z,11.10
2023-05-05T05:37:59.810Z,12.07
2023-05-05T05:40:27.420Z,11.83
2023-05-05T05:42:54.494Z,11.65
2023-05-05T05:45:22.493Z,11.25
2023-05-05T05:47:52.517Z,11.00
2023-05-05T05:50:22.889Z,10.63
2023-05-05T05:52:49.721Z,11.15
2023-05-05T05:55:17.238Z,11.05
2023-05-05T05:57:44.641Z,13.13
2023-05-05T06:00:12.940Z,10.95
2023-05-05T06:02:39.763Z,10.07
2023-05-05T06:05:13.577Z,12.00
2023-05-05T06:07:40.236Z,10.70
2023-05-05T06:10:22.771Z,10.73
2023-05-05T06:12:53.798Z,11.67
2023-05-05T06:15:20.926Z,10.70
2023-05-05T06:17:52.346Z,10.57
2023-05-05T06:20:20.495Z,10.40
2023-05-05T06:22:47.429Z,10.17
2023-05-05T06:25:16.267Z,10.00
2023-05-05T06:27:44.790Z,9.83
2023-05-05T06:30:12.427Z,10.83
2023-05-05T06:32:40.065Z,11.53
2023-05-05T06:35:07.354Z,10.40
2023-05-05T06:37:40.636Z,10.27
2023-05-05T06:40:11.310Z,10.33
2023-05-05T06:42:38.494Z,9.87
2023-05-05T06:45:06.117Z,10.57
2023-05-05T06:47:34.068Z,10.87
2023-05-05T06:50:01.330Z,10.80
2023-05-05T06:52:29.429Z,11.93
2023-05-05T06:54:56.335Z,10.93
2023-05-05T06:57:23.492Z,10.63
2023-05-05T06:59:50.236Z,10.87
2023-05-05T07:02:17.227Z,11.60
2023-05-05T07:04:44.834Z,10.67
2023-05-05T07:07:11.867Z,9.20
2023-05-05T07:09:38.626Z,9.33
2023-05-05T07:12:05.878Z,9.30
2023-05-05T07:14:32.967Z,9.63
2023-05-05T07:17:02.215Z,9.33
2023-05-05T07:19:29.663Z,11.60
2023-05-05T07:21:56.638Z,9.63
2023-05-05T07:24:26.650Z,8.50
2023-05-05T07:26:53.752Z,8.70
2023-05-05T07:29:20.805Z,8.50
2023-05-05T07:31:47.914Z,9.10
2023-05-05T07:34:19.226Z,9.70
2023-05-05T07:36:46.006Z,8.10
2023-05-05T07:39:15.430Z,8.13
2023-05-05T07:41:43.387Z,7.57
2023-05-05T07:44:17.854Z,7.27
2023-05-05T07:46:46.153Z,7.87
2023-05-05T07:49:13.459Z,8.63
2023-05-05T07:51:40.137Z,7.53
2023-05-05T07:54:08.308Z,7.30
2023-05-05T07:56:36.618Z,8.27
2023-05-05T07:59:03.396Z,7.77
2023-05-05T08:01:30.077Z,7.53
2023-05-05T08:03:56.945Z,7.17
2023-05-05T08:06:25.627Z,7.67
2023-05-05T08:08:53.473Z,8.10
2023-05-05T08:11:20.668Z,7.20
2023-05-05T08:13:48.117Z,6.80
2023-05-05T08:16:15.858Z,6.97
2023-05-05T08:18:42.795Z,6.70
2023-05-05T08:21:10.940Z,8.10
2023-05-05T08:23:38.706Z,6.87
2023-05-05T08:26:09.446Z,7.20
2023-05-05T08:28:36.883Z,5.20
2023-05-05T08:31:04.976Z,5.90
2023-05-05T08:33:31.876Z,7.23
2023-05-05T08:35:58.995Z,6.50
2023-05-05T08:38:28.215Z,5.70
2023-05-05T08:40:55.030Z,6.43
2023-05-05T08:43:24.082Z,5.67
2023-05-05T08:45:51.794Z,5.90
2023-05-05T08:48:21.048Z,5.07
2023-05-05T08:50:52.511Z,5.40
2023-05-05T08:53:49.341Z,4.33
2023-05-05T08:56:16.432Z,4.87
2023-05-05T08:58:44.992Z,4.87
2023-05-05T09:01:13.057Z,5.00
2023-05-05T09:03:40.576Z,4.67
2023-05-05T09:06:07.823Z,4.23
2023-05-05T09:08:34.973Z,4.13
2023-05-05T09:11:04.485Z,4.40
2023-05-05T09:16:18.746Z,4.27
2023-05-05T09:18:45.759Z,3.63
2023-05-05T09:21:24.712Z,3.93
2023-05-05T09:24:09.333Z,3.80
2023-05-05T09:26:44.854Z,3.00
2023-05-05T09:29:21.821Z,3.77
2023-05-05T09:32:08.556Z,3.20
2023-05-05T09:34:36.163Z,2.80
2023-05-05T09:37:03.392Z,3.83
2023-05-05T09:39:30.471Z,3.97
2023-05-05T09:41:57.393Z,4.47
2023-05-05T09:44:35.581Z,3.10
2023-05-05T09:47:22.153Z,2.97
2023-05-05T09:49:59.845Z,4.30
2023-05-05T09:52:28.708Z,4.23
2023-05-05T09:54:58.650Z,4.00
2023-05-05T09:57:35.931Z,4.93
2023-05-05T10:00:04.943Z,3.47
2023-05-05T10:02:37.634Z,4.20
2023-05-05T10:05:20.722Z,3.53
2023-05-05T10:07:50.959Z,3.37
2023-05-05T10:10:18.333Z,4.17
2023-05-05T10:12:48.119Z,3.80
2023-05-05T10:15:17.205Z,2.93
2023-05-05T10:18:02.428Z,4.10
2023-05-05T10:20:35.554Z,3.80
2023-05-05T10:23:05.638Z,3.50
2023-05-05T10:25:43.461Z,4.03
2023-05-05T10:28:12.333Z,3.60
2023-05-05T10:30:46.350Z,3.53
2023-05-05T10:33:30.207Z,4.23
2023-05-05T10:36:01.721Z,3.47
2023-05-05T10:38:31.305Z,3.60
2023-05-05T10:41:00.003Z,4.10
2023-05-05T10:43:28.885Z,4.13
2023-05-05T10:45:56.140Z,4.10
2023-05-05T10:48:40.064Z,3.23
2023-05-05T10:51:39.302Z,4.10
2023-05-05T10:54:25.295Z,3.70
2023-05-05T10:56:53.186Z,3.80
2023-05-05T10:59:38.350Z,3.03
2023-05-05T11:02:27.892Z,3.30
2023-05-05T11:05:22.820Z,4.40
2023-05-05T11:07:52.047Z,3.50
2023-05-05T11:10:23.749Z,3.37
2023-05-05T11:13:02.784Z,3.40
2023-05-05T11:15:30.110Z,6.30
2023-05-05T11:17:58.863Z,3.33
2023-05-05T11:20:58.024Z,3.30
2023-05-05T11:23:31.084Z,3.43
2023-05-05T11:25:58.544Z,3.40
2023-05-05T11:28:29.884Z,3.13
2023-05-05T11:30:59.982Z,2.80
2023-05-05T11:33:32.505Z,3.50
2023-05-05T11:36:04.087Z,2.90
2023-05-05T11:38:50.085Z,3.07
2023-05-05T11:41:35.801Z,3.60
2023-05-05T11:44:16.802Z,4.13
2023-05-05T11:46:52.647Z,3.47
2023-05-05T11:49:36.617Z,3.20
2023-05-05T11:52:08.655Z,3.40
2023-05-05T11:54:36.901Z,3.63
2023-05-05T11:57:10.219Z,3.10
2023-05-05T11:59:49.858Z,2.70
2023-05-05T12:02:18.106Z,3.27
2023-05-05T12:04:45.309Z,3.10
2023-05-05T12:07:22.653Z,3.00
2023-05-05T12:09:50.539Z,2.63
2023-05-05T12:12:20.575Z,3.33
2023-05-05T12:14:54.233Z,3.30
2023-05-05T12:17:22.761Z,2.90
2023-05-05T12:19:54.609Z,3.20
2023-05-05T12:22:26.667Z,3.67
2023-05-05T12:25:05.483Z,2.60
2023-05-05T12:27:32.820Z,2.00
2023-05-05T12:30:16.082Z,2.63
2023-05-05T12:32:43.345Z,3.00
2023-05-05T12:35:12.674Z,2.90
2023-05-05T12:37:39.877Z,3.37
2023-05-05T12:40:28.783Z,3.60
2023-05-05T12:42:56.219Z,2.83
2023-05-05T12:45:23.021Z,2.70
2023-05-05T12:47:50.487Z,3.50
2023-05-05T12:50:31.860Z,3.33
2023-05-05T12:52:58.966Z,2.60
2023-05-05T12:55:40.507Z,2.40
2023-05-05T12:58:10.040Z,3.13
2023-05-05T13:00:38.273Z,3.13
2023-05-05T13:03:06.243Z,3.30
2023-05-05T13:05:36.553Z,3.40
2023-05-05T13:08:03.410Z,2.67
2023-05-05T13:10:31.749Z,2.70
2023-05-05T13:12:58.706Z,2.80
2023-05-05T13:15:26.471Z,2.60
2023-05-05T13:18:02.972Z,2.20
2023-05-05T13:20:30.752Z,2.60
2023-05-05T13:22:57.917Z,2.80
2023-05-05T13:25:27.842Z,3.03
2023-05-05T13:27:55.992Z,2.97
2023-05-05T13:30:22.830Z,2.73
2023-05-05T13:32:50.042Z,2.40
2023-05-05T13:35:17.467Z,3.33
2023-05-05T13:37:46.559Z,2.80
2023-05-05T13:40:14.011Z,3.23
2023-05-05T13:42:41.021Z,2.80
2023-05-05T13:45:15.499Z,3.03
2023-05-05T13:47:44.810Z,2.50
2023-05-05T13:50:13.265Z,2.53
2023-05-05T13:52:40.992Z,2.73
2023-05-05T13:55:12.414Z,2.70
2023-05-05T13:57:39.690Z,3.60
2023-05-05T14:00:07.158Z,2.90
2023-05-05T14:02:35.100Z,2.73
2023-05-05T14:05:01.801Z,3.17
2023-05-05T14:07:40.597Z,2.33
2023-05-05T14:10:09.263Z,2.77
2023-05-05T14:12:39.581Z,2.60
2023-05-05T14:15:08.860Z,2.30
2023-05-05T14:17:38.681Z,2.77
2023-05-05T14:20:06.369Z,3.10
2023-05-05T14:22:36.299Z,2.73
2023-05-05T14:25:04.141Z,2.30
2023-05-05T14:27:32.639Z,3.17
2023-05-05T14:29:59.331Z,2.30
2023-05-05T14:32:26.637Z,2.27
2023-05-05T14:34:55.338Z,2.27
2023-05-05T14:37:22.870Z,2.73
2023-05-05T14:39:49.588Z,2.80
2023-05-05T14:42:16.382Z,2.40
2023-05-05T14:44:43.093Z,2.27
2023-05-05T14:47:09.875Z,2.37
2023-05-05T14:49:36.583Z,3.23
2023-05-05T14:52:05.135Z,2.60
2023-05-05T14:54:32.984Z,2.50
2023-05-05T14:56:59.891Z,2.83
2023-05-05T14:59:28.079Z,2.90
2023-05-05T15:01:54.957Z,3.30
2023-05-05T15:04:21.789Z,2.90
2023-05-05T15:06:48.881Z,3.53
2023-05-05T15:09:18.038Z,2.60
2023-05-05T15:11:45.890Z,3.23
2023-05-05T15:14:14.022Z,2.93
2023-05-05T15:16:41.304Z,2.77
2023-05-05T15:19:08.081Z,2.40
2023-05-05T15:21:35.181Z,3.27
2023-05-05T15:24:02.288Z,2.83
2023-05-05T15:26:28.997Z,3.27
2023-05-05T15:28:56.194Z,2.37
2023-05-05T15:31:22.899Z,2.80
2023-05-05T15:33:51.530Z,2.63
2023-05-05T15:36:22.564Z,2.40
2023-05-05T15:38:49.848Z,3.30
2023-05-05T15:41:16.569Z,2.47
2023-05-05T15:43:47.955Z,3.03
2023-05-05T15:46:17.267Z,2.33
2023-05-05T15:48:44.337Z,1.97
2023-05-05T15:51:12.430Z,2.40
2023-05-05T15:53:39.480Z,2.93
2023-05-05T15:56:06.334Z,2.30
2023-05-05T15:58:33.689Z,2.70
2023-05-05T16:01:00.573Z,2.53
2023-05-05T16:03:27.518Z,2.60
2023-05-05T16:05:54.779Z,2.50
2023-05-05T16:08:21.515Z,2.37
2023-05-05T16:10:48.233Z,1.77
2023-05-05T16:13:15.034Z,2.57
2023-05-05T16:15:42.167Z,2.53
2023-05-05T16:18:08.970Z,2.50
2023-05-05T16:20:36.208Z,3.27
2023-05-05T16:23:03.051Z,2.17
2023-05-05T16:25:30.269Z,2.50
2023-05-05T16:27:57.826Z,2.27
2023-05-05T16:30:25.068Z,2.50
2023-05-05T16:32:52.314Z,2.93
2023-05-05T16:35:19.515Z,2.20
2023-05-05T16:37:46.348Z,2.77
2023-05-05T16:40:13.270Z,2.97
2023-05-05T16:42:40.370Z,2.83
2023-05-05T16:45:08.549Z,2.20
2023-05-05T16:47:36.174Z,2.80
2023-05-05T16:50:03.306Z,3.10
2023-05-05T16:52:30.052Z,2.57
2023-05-05T16:54:57.419Z,2.50
2023-05-05T16:57:24.851Z,2.60
2023-05-05T16:59:54.471Z,2.43
2023-05-05T17:02:21.666Z,2.60
2023-05-05T17:04:48.546Z,2.70
2023-05-05T17:07:15.505Z,2.70
2023-05-05T17:09:42.176Z,2.80
2023-05-05T17:12:09.260Z,2.77
2023-05-05T17:14:37.353Z,2.33
2023-05-05T17:17:04.284Z,3.63
2023-05-05T17:19:31.848Z,2.53
2023-05-05T17:21:58.656Z,3.10
2023-05-05T17:24:25.751Z,2.87
2023-05-05T17:26:55.230Z,2.80
2023-05-05T17:29:23.533Z,3.40
2023-05-05T17:31:50.952Z,2.63
2023-05-05T17:34:18.194Z,2.60
2023-05-05T17:36:44.900Z,2.90
2023-05-05T17:39:11.836Z,3.17
2023-05-05T17:41:38.924Z,3.20
2023-05-05T17:44:05.928Z,2.43
2023-05-05T17:46:33.356Z,2.80
2023-05-05T17:49:00.910Z,3.43
2023-05-05T17:51:29.585Z,3.37
2023-05-05T17:53:56.512Z,3.00
2023-05-05T17:56:23.280Z,2.50
2023-05-05T17:58:50.057Z,2.70
2023-05-05T18:01:27.832Z,2.73
2023-05-05T18:03:56.530Z,2.80
2023-05-05T18:06:23.290Z,2.70
2023-05-05T18:08:50.275Z,3.07
2023-05-05T18:11:17.098Z,2.60
2023-05-05T18:13:45.264Z,2.77
2023-05-05T18:16:12.342Z,2.67
2023-05-05T18:18:41.540Z,3.07
2023-05-05T18:21:12.594Z,2.87
2023-05-05T18:23:40.236Z,3.53
2023-05-05T18:26:07.854Z,4.13
2023-05-05T18:28:37.047Z,3.63
2023-05-05T18:31:04.269Z,4.23
2023-05-05T18:33:31.876Z,4.17
2023-05-05T18:35:59.246Z,5.03
2023-05-05T18:38:25.980Z,4.53
2023-05-05T18:40:52.740Z,4.73
2023-05-05T18:43:19.500Z,5.03
2023-05-05T18:45:47.518Z,4.80
2023-05-05T18:48:14.200Z,4.03
2023-05-05T18:50:41.226Z,4.03
2023-05-05T18:53:12.588Z,4.80
2023-05-05T18:55:39.449Z,5.30
2023-05-05T18:58:06.867Z,5.33
2023-05-05T19:00:33.578Z,4.80
2023-05-05T19:03:00.357Z,5.27
2023-05-05T19:05:27.639Z,5.33
2023-05-05T19:07:55.738Z,3.77
2023-05-05T19:10:27.143Z,4.70
2023-05-05T19:12:55.489Z,5.03
2023-05-05T19:15:22.511Z,5.13
2023-05-05T19:17:49.310Z,4.10
2023-05-05T19:20:16.435Z,4.57
2023-05-05T19:22:43.482Z,4.73
2023-05-05T19:25:10.622Z,4.70
2023-05-05T19:27:39.665Z,4.67
2023-05-05T19:30:07.501Z,4.43
2023-05-05T19:32:34.616Z,5.27
2023-05-05T19:35:01.997Z,4.47
2023-05-05T19:37:28.800Z,4.60
2023-05-05T19:39:57.513Z,5.10
2023-05-05T19:42:24.197Z,6.07
2023-05-05T19:44:52.240Z,4.87
2023-05-05T19:47:19.007Z,5.13
2023-05-05T19:49:49.380Z,6.23
2023-05-05T19:52:18.977Z,3.63
2023-05-05T19:54:45.783Z,5.13
2023-05-05T19:57:12.904Z,4.60
2023-05-05T19:59:39.870Z,4.50
2023-05-05T20:02:06.845Z,4.90
2023-05-05T20:04:33.583Z,4.80
2023-05-05T20:07:00.547Z,3.63
2023-05-05T20:09:27.642Z,4.20
2023-05-05T20:11:55.844Z,5.30
2023-05-05T20:14:23.168Z,4.60
2023-05-05T20:16:50.197Z,4.43
2023-05-05T20:19:19.248Z,5.30
2023-05-05T20:21:46.244Z,4.17
2023-05-05T20:24:12.977Z,5.20
2023-05-05T20:26:39.841Z,4.60
2023-05-05T20:29:06.967Z,5.50
2023-05-05T20:31:35.329Z,5.00
2023-05-05T20:34:02.060Z,7.97
2023-05-05T20:36:28.765Z,5.00
2023-05-05T20:38:55.607Z,4.60
2023-05-05T20:41:22.354Z,4.35
2023-05-05T20:43:49.144Z,5.07
2023-05-05T20:46:16.482Z,5.38
2023-05-05T20:48:44.053Z,3.80
2023-05-05T20:51:11.242Z,4.63
2023-05-05T20:53:37.943Z,5.70
2023-05-05T20:56:08.614Z,5.30
2023-05-05T20:58:38.726Z,5.60
2023-05-05T21:01:07.689Z,4.60
2023-05-05T21:03:36.046Z,5.68
2023-05-05T21:06:02.964Z,4.60
2023-05-05T21:08:30.308Z,5.50
2023-05-05T21:10:57.522Z,6.43
2023-05-05T21:13:24.453Z,6.30
2023-05-05T21:15:51.268Z,5.93
2023-05-05T21:18:18.008Z,5.53
2023-05-05T21:20:45.109Z,6.00
2023-05-05T21:23:11.987Z,6.60
2023-05-05T21:25:38.698Z,5.68
2023-05-05T21:28:06.019Z,6.55
2023-05-05T21:30:33.706Z,6.22
2023-05-05T21:33:00.549Z,6.55
2023-05-05T21:35:27.295Z,6.20
2023-05-05T21:37:53.989Z,6.00
2023-05-05T21:40:21.055Z,6.13
2023-05-05T21:42:48.117Z,5.60
2023-05-05T21:45:15.376Z,6.95
2023-05-05T21:47:42.281Z,6.55
2023-05-05T21:50:11.750Z,5.28
2023-05-05T21:52:39.944Z,5.95
2023-05-05T21:55:07.069Z,5.95
2023-05-05T21:57:33.801Z,5.90
2023-05-05T22:00:00.512Z,6.07
2023-05-05T22:02:27.279Z,5.45
2023-05-05T22:04:54.455Z,6.80
2023-05-05T22:07:21.241Z,5.20
2023-05-05T22:09:48.150Z,6.15
2023-05-05T22:12:15.047Z,5.57
2023-05-05T22:14:45.573Z,5.80
2023-05-05T22:17:12.775Z,5.50
2023-05-05T22:19:39.503Z,5.45
2023-05-05T22:22:06.881Z,5.95
2023-05-05T22:24:37.096Z,6.20
2023-05-05T22:27:03.985Z,5.20
2023-05-05T22:29:30.986Z,5.43
2023-05-05T22:31:59.505Z,5.63
2023-05-05T22:34:26.232Z,5.50
2023-05-05T22:36:54.312Z,5.95
2023-05-05T22:39:21.190Z,6.43
2023-05-05T22:41:48.253Z,5.80
2023-05-05T22:44:15.559Z,5.50
2023-05-05T22:46:42.331Z,5.45
2023-05-05T22:49:10.174Z,5.80
2023-05-05T22:51:36.929Z,5.78
2023-05-05T22:54:04.102Z,5.45
2023-05-05T22:56:32.017Z,5.25
2023-05-05T22:58:59.989Z,6.50
2023-05-05T23:01:26.703Z,4.50
2023-05-05T23:03:54.358Z,5.35
2023-05-05T23:06:21.110Z,5.13
2023-05-05T23:08:50.365Z,4.63
2023-05-05T23:11:17.451Z,4.43
2023-05-05T23:13:44.191Z,5.00
2023-05-05T23:16:14.778Z,4.82
2023-05-05T23:18:41.812Z,4.68
2023-05-05T23:21:08.973Z,5.05
2023-05-05T23:23:35.886Z,4.35
2023-05-05T23:26:02.606Z,5.13
2023-05-05T23:28:29.301Z,4.90
2023-05-05T23:30:56.157Z,5.85
2023-05-05T23:33:23.284Z,4.10
2023-05-05T23:35:50.005Z,5.70
2023-05-05T23:38:16.783Z,4.65
2023-05-05T23:40:43.560Z,5.38
2023-05-05T23:43:12.247Z,4.90
2023-05-05T23:45:38.960Z,5.15
2023-05-05T23:48:06.269Z,5.25
2023-05-05T23:50:33.686Z,4.88
2023-05-05T23:53:00.397Z,5.45
2023-05-05T23:55:27.446Z,5.20
2023-05-05T23:57:54.138Z,4.90
